Startpagina
METAR-TAF:

METAR-TAF

Vliegvelden :

Aéroport Clermont-Ferrand Auvergne

Clermont-Ferrand, Frankrijk

breedte: 45-47N, lengte: 003-10E, hoogte: 332 m

Actueel weer

Dit bericht is 37 minuten geleden gemaakt, om 02:30 UTC
Wind 6 kt uit het noordnoordwesten
Temperatuur 4°C
Vochtigheid 81%
Druk 1024 hPa
Zicht 10 km of meer
Geheel bewolkt op 2600 ft

METAR: LFLC 120230Z AUTO 34006KT 9999 OVC026 04/01 Q1024 TEMPO OVC012

Tijdstip: 05:07 (03:07 UTC)

Verwachting

Dit bericht is 4 uur en het 7 minuten geleden gemaakt, om 23:00 UTC
Verwachting geldig van 12 om 00 UTC tot 12 om 24 UTC
Wind 8 kt uit het noorden
Zicht 10 km of meer
Gebroken wolken op 2000 ft
Kans 40% :
Tijdelijke
van 12 om 00 UTC tot 12 om 07 UTC
Geheel bewolkt op 1200 ft
Wijzigt naar
van 12 om 08 UTC tot 12 om 10 UTC

TAF: LFLC 112300Z 1200/1224 36008KT 9999 BKN020 PROB40 TEMPO 1200/1207 OVC012 BECMG 1208/1210 NSC

Waarnemingen en weersverwachtingen van meer dan 4000 vliegvelden (METAR en TAF).

De beschikbare stations zijn de gele en rode punten op de kaart.

Ga met uw muis naar het station om de naam te zien.

Klik dan om waarnemingen en weersverwachtingen te zien.

kaart wijzigen: klik op de groene knoppen met een zwart kruis om in te zoomen, op de groene knop met een streepje om uit te zoomen of op de groene pijlen voor aangrenzende kaarten.


METAR-TAF: